x

Corpus Christi, Tx - 60nm Sse Of Corpus Christi, Tx (42020) Wave Buoy

9:50am - Fri 26th Dec 2014 All times are CST. -6 hours from GMT.

  • Sig Wave height 8.5ft
  • Swell Direction
  • Peak Period 8s
  • Average Period 6s
  • Wind
    25mph, 29mph gusts
  • Sea Temp 72°f
  • Air Temp 72°f
  • Sea Pressure 1014.4mb
  • Corpus Christi, Tx - 60nm Sse Of Corpus Christi, Tx
  • Corpus Christi, Tx - 60nm Sse Of Corpus Christi, Tx

More Historic Weather Station data

Upgrade to MSW Pro to gain access to the past 30 days of data for over 8000 Wavebouys and Weather Stations around the globe.

Join Pro

Comparision Forecast

View Surf forecast
   
Fri 12/26 9:50am 8.5ft 8s 6s 25 29 mph 1014.4mb 72f 72f
8:50am 8.5ft 8s 6s 25 29 mph 1013.9mb 72f 71f
7:50am 8.5ft 7s 6s 25 29 mph 1013.5mb 72f 71f
6:50am 8ft 8s 6s 22 27 mph 1013.2mb 72f 70f
5:50am 8ft 7s 6s 27 31 mph 1013mb 72f 69f
4:50am 8ft 7s 6s 22 29 mph 1013.3mb 72f 69f
3:50am 8ft 7s 6s 27 34 mph 1013.3mb 72f 69f
2:50am 8ft 7s 6s 27 31 mph 1013.7mb 72f 70f
1:50am 7ft 7s 5s 25 29 mph 1014.3mb 72f 70f
12:50am 7.5ft 7s 5s 27 34 mph 1014.8mb 72f 69f
Thu 12/25 11:50pm 7ft 6s 5s 27 31 mph 1015.3mb 72f 70f
10:50pm 6ft 6s 5s 29 36 mph 1015.6mb 72f 69f
9:50pm 6ft 6s 5s 29 34 mph 1015.6mb 72f 69f
8:50pm 5ft 6s 5s 27 31 mph 1015.7mb 72f 68f
7:50pm 5ft 6s 5s 27 34 mph 1015.9mb 72f 67f
6:50pm 4.5ft 5s 4s 25 27 mph 1015.9mb 72f 67f
5:50pm 4ft 5s 4s 22 27 mph 1015.8mb 72f 66f
4:50pm 4.5ft 5s 4s 20 25 mph 1016.3mb 72f 66f
3:50pm 4.5ft 5s 4s 20 25 mph 1016.7mb 72f 66f
2:50pm 3.5ft 5s 4s 20 25 mph 1017.2mb 72f 65f
1:50pm 4ft 4s 4s 20 25 mph 1017.7mb 72f 65f
12:50pm 3ft 4s 4s 20 27 mph 1018.9mb 72f 65f
11:50am 3ft 4s 4s 20 25 mph 1020.1mb 72f 65f
10:50am 2.5ft 4s 3s 20 25 mph 1020.7mb 72f 64f
9:50am 2ft 3s 3s 20 22 mph 1021.1mb 72f 64f
8:50am 1.6ft 3s 3s 18 22 mph 1021.4mb 72f 63f
7:50am 1.6ft 2s 3s 16 20 mph 1020.9mb 72f 62f
6:50am 1ft 11s 3s 16 20 mph 1020.6mb 72f 61f
5:50am 1ft 4s 4s 13 18 mph 1020.3mb 72f 61f
4:50am 1ft 8s 4s 9 11 mph 1020.1mb 72f 60f
3:50am 1ft 4s 4s 7 11 mph 1020.5mb 72f 60f
2:50am 1.3ft 4s 4s 4 7 mph 1020.6mb 72f 60f
1:50am 1.3ft 4s 4s  -  2 mph 1020.9mb 72f 59f
12:50am 1.6ft 4s 4s 4 7 mph 1021.5mb 72f 60f
Wed 12/24 11:50pm 2ft 4s 4s 9 11 mph 1021.4mb 72f 60f
10:50pm 2ft 5s 4s 9 13 mph 1022.1mb 72f 60f
9:50pm 2.5ft 5s 4s 11 18 mph 1022mb 72f 60f
8:50pm 2.5ft 5s 4s 11 16 mph 1021.6mb 72f 60f
7:50pm 3ft 5s 4s 9 16 mph 1021.4mb 72f 59f
6:50pm 3.5ft 5s 4s 13 18 mph 1020.8mb 72f 59f
5:50pm 4ft 5s 5s 16 18 mph 1020.5mb 72f 58f
4:50pm 4.5ft 6s 5s 16 22 mph 1020.6mb 72f 58f
3:50pm 5ft 6s 5s 18 25 mph 1020.4mb 72f 57f
2:50pm 6ft 6s 5s 22 27 mph 1020.1mb 72f 56f
1:50pm 6ft 6s 5s 25 31 mph 1020mb 72f 55f
12:50pm 7ft 6s 5s 25 29 mph 1020.4mb 72f 55f
11:50am 6ft 6s 5s 29 38 mph 1020.9mb 72f 54f
10:50am 6ft 6s 5s 27 31 mph 1021.6mb 72f 53f
9:50am 7ft 6s 5s 27 34 mph 1021.4mb 72f 54f
8:50am 6.5ft 6s 5s 25 31 mph 1020.3mb 73f 55f
7:50am 7ft 6s 5s 25 31 mph 1019.2mb 73f 55f
6:50am 8ft 7s 6s 22 29 mph 1018.4mb 73f 56f
5:50am 9ft 7s 6s 27 34 mph 1016.9mb 73f 57f
4:50am 8.5ft 8s 6s 27 34 mph 1016.1mb 73f 57f
3:50am 9ft 7s 6s 27 31 mph 1016.6mb 73f 58f
2:50am 9ft 8s 6s 29 36 mph 1015.4mb 73f 58f
1:50am 9.5ft 8s 6s 29 36 mph 1015.7mb 73f 58f
12:50am 9ft 7s 6s 31 38 mph 1015.1mb 73f 59f
Tue 12/23 11:50pm 9.5ft 8s 6s 34 43 mph 1014.6mb 73f 58f
10:50pm 9.5ft 8s 6s 29 38 mph 1014.9mb 73f 58f
9:50pm 9ft 7s 6s 31 38 mph 1013.4mb 73f 58f
8:50pm 10ft 8s 6s 31 38 mph 1012mb 73f 60f
7:50pm 9ft 7s 6s 34 40 mph 1010.3mb 73f 60f
6:50pm 8.5ft 7s 6s 29 34 mph 1008.2mb 73f 60f
5:50pm 8.5ft 6s 6s 36 43 mph 1006.1mb 73f 63f
4:50pm 7ft 6s 5s 31 38 mph 1004.7mb 73f 64f
3:50pm 6ft 6s 5s 29 36 mph 1003.5mb 73f 64f
2:50pm 5ft 5s 4s 27 31 mph 1002.5mb 73f 64f
1:50pm 4ft 4s 4s 29 36 mph 1001.1mb 73f 64f
12:50pm 2.5ft 6s 4s 22 27 mph 1001.1mb 73f 67f
11:50am 3ft 6s 4s 16 20 mph 1001.9mb 73f 69f
10:50am 3ft 6s 5s 18 22 mph 1002.2mb 72f 69f
9:50am 3ft 6s 4s 7 11 mph 1001.7mb 73f 71f
8:50am 3ft 6s 4s 16 20 mph 1000.8mb 73f 73f
7:50am 3ft 6s 4s 18 20 mph 999.4mb 72f 73f
6:50am 3.5ft 6s 4s 20 22 mph 999mb 72f 72f
5:50am 3.5ft 6s 4s 18 20 mph 999.4mb 72f 72f
4:50am 3.5ft 6s 4s 16 18 mph 1000.1mb 73f 72f
3:50am 3.5ft 5s 4s 16 20 mph 1001.1mb 73f 72f
2:50am 4ft 5s 4s 16 20 mph 1001.5mb 73f 72f
1:50am 4ft 5s 4s 16 20 mph 1002.4mb 73f 72f
12:50am 4ft 5s 4s 18 22 mph 1001.9mb 73f 72f
Mon 12/22 11:50pm 4ft 5s 4s 22 29 mph 1002mb 73f 72f
10:50pm 3.5ft 4s 4s 22 27 mph 1002.5mb 73f 72f
9:50pm 3.5ft 4s 4s 20 25 mph 1003.1mb 73f 72f
8:50pm 3ft 4s 4s 20 25 mph 1003.3mb 73f 72f
7:50pm 3ft 4s 4s 20 22 mph 1003.6mb 73f 71f
6:50pm 3.5ft 4s 4s 18 22 mph 1003.2mb 73f 71f
5:50pm 3.5ft 4s 4s 22 27 mph 1003mb 73f 71f
4:50pm 3ft 4s 4s 22 29 mph 1003.1mb 73f 71f